sensor_id;sensor_type;location;lat;lon;timestamp;pressure;altitude;pressure_sealevel;temperature;humidity
64230;BME280;50547;49.498;0.092;2022-09-09T00:01:03;1003;;;17.10;89.06
64230;BME280;50547;49.498;0.092;2022-09-09T00:03:41;1003;;;17.12;89.10
64230;BME280;50547;49.498;0.092;2022-09-09T00:06:17;1002;;;17.06;88.50
64230;BME280;50547;49.498;0.092;2022-09-09T00:08:58;1003;;;17.04;87.64
64230;BME280;50547;49.498;0.092;2022-09-09T00:11:35;1002;;;17.26;86.78
64230;BME280;50547;49.498;0.092;2022-09-09T00:14:13;1002;;;17.33;86.41
64230;BME280;50547;49.498;0.092;2022-09-09T00:16:50;1002;;;17.34;86.47
64230;BME280;50547;49.498;0.092;2022-09-09T00:19:26;1002;;;17.28;86.57
64230;BME280;50547;49.498;0.092;2022-09-09T00:22:06;1002;;;17.32;86.46
64230;BME280;50547;49.498;0.092;2022-09-09T00:24:44;1002;;;17.36;86.14
64230;BME280;50547;49.498;0.092;2022-09-09T00:27:21;1002;;;17.38;85.80
64230;BME280;50547;49.498;0.092;2022-09-09T00:29:56;1002;;;17.44;85.48
64230;BME280;50547;49.498;0.092;2022-09-09T00:32:29;1002;;;17.49;85.57
64230;BME280;50547;49.498;0.092;2022-09-09T00:35:03;1002;;;17.47;85.78
64230;BME280;50547;49.498;0.092;2022-09-09T00:37:33;1002;;;17.38;86.48
64230;BME280;50547;49.498;0.092;2022-09-09T00:40:11;1003;;;17.38;87.44
64230;BME280;50547;49.498;0.092;2022-09-09T00:42:54;1002;;;17.08;89.22
64230;BME280;50547;49.498;0.092;2022-09-09T00:45:47;1002;;;17.15;89.60
64230;BME280;50547;49.498;0.092;2022-09-09T00:48:22;1002;;;17.20;90.07
64230;BME280;50547;49.498;0.092;2022-09-09T00:51:04;1002;;;17.05;90.32
64230;BME280;50547;49.498;0.092;2022-09-09T00:53:42;1002;;;17.10;89.96
64230;BME280;50547;49.498;0.092;2022-09-09T00:56:13;1002;;;17.04;89.66
64230;BME280;50547;49.498;0.092;2022-09-09T00:58:49;1002;;;17.04;89.23
64230;BME280;50547;49.498;0.092;2022-09-09T01:01:20;1003;;;16.95;89.19
64230;BME280;50547;49.498;0.092;2022-09-09T01:03:53;1002;;;17.04;89.54
64230;BME280;50547;49.498;0.092;2022-09-09T01:06:30;1002;;;16.95;89.41
64230;BME280;50547;49.498;0.092;2022-09-09T01:09:07;1002;;;17.05;89.14
64230;BME280;50547;49.498;0.092;2022-09-09T01:11:49;1002;;;17.03;88.72
64230;BME280;50547;49.498;0.092;2022-09-09T01:14:32;1002;;;17.10;88.92
64230;BME280;50547;49.498;0.092;2022-09-09T01:17:09;1002;;;16.94;89.19
64230;BME280;50547;49.498;0.092;2022-09-09T01:19:52;1002;;;17.11;88.31
64230;BME280;50547;49.498;0.092;2022-09-09T01:22:33;1002;;;17.21;87.36
64230;BME280;50547;49.498;0.092;2022-09-09T01:25:18;1002;;;17.42;87.29
64230;BME280;50547;49.498;0.092;2022-09-09T01:27:51;1002;;;17.39;87.18
64230;BME280;50547;49.498;0.092;2022-09-09T01:30:22;1002;;;17.34;86.70
64230;BME280;50547;49.498;0.092;2022-09-09T01:32:55;1002;;;17.39;86.77
64230;BME280;50547;49.498;0.092;2022-09-09T01:35:37;1002;;;17.41;86.51
64230;BME280;50547;49.498;0.092;2022-09-09T01:38:08;1002;;;17.33;86.61
64230;BME280;50547;49.498;0.092;2022-09-09T01:40:38;1002;;;17.43;86.57
64230;BME280;50547;49.498;0.092;2022-09-09T01:43:07;1002;;;17.46;86.35
64230;BME280;50547;49.498;0.092;2022-09-09T01:45:37;1002;;;17.31;86.51
64230;BME280;50547;49.498;0.092;2022-09-09T01:48:08;1002;;;17.38;86.22
64230;BME280;50547;49.498;0.092;2022-09-09T01:50:37;1002;;;17.43;86.28
64230;BME280;50547;49.498;0.092;2022-09-09T01:53:06;1002;;;17.40;86.11
64230;BME280;50547;49.498;0.092;2022-09-09T02:00:16;1002;;;17.61;86.11
64230;BME280;50547;49.498;0.092;2022-09-09T02:02:53;1002;;;17.53;86.12
64230;BME280;50547;49.498;0.092;2022-09-09T02:05:35;1002;;;17.55;85.97
64230;BME280;50547;49.498;0.092;2022-09-09T02:08:07;1002;;;17.50;85.60
64230;BME280;50547;49.498;0.092;2022-09-09T02:10:42;1002;;;17.48;85.18
64230;BME280;50547;49.498;0.092;2022-09-09T02:13:15;1002;;;17.69;85.36
64230;BME280;50547;49.498;0.092;2022-09-09T02:15:48;1002;;;17.47;86.21
64230;BME280;50547;49.498;0.092;2022-09-09T02:18:24;1002;;;17.46;86.71
64230;BME280;50547;49.498;0.092;2022-09-09T02:20:56;1002;;;17.47;86.92
64230;BME280;50547;49.498;0.092;2022-09-09T02:23:27;1002;;;17.42;86.46
64230;BME280;50547;49.498;0.092;2022-09-09T02:25:58;1002;;;17.44;85.99
64230;BME280;50547;49.498;0.092;2022-09-09T02:28:29;1002;;;17.39;86.55
64230;BME280;50547;49.498;0.092;2022-09-09T02:31:01;1002;;;17.52;87.77
64230;BME280;50547;49.498;0.092;2022-09-09T02:33:34;1002;;;17.49;87.92
64230;BME280;50547;49.498;0.092;2022-09-09T02:36:08;1002;;;17.55;87.47
64230;BME280;50547;49.498;0.092;2022-09-09T02:38:41;1002;;;17.48;87.16
64230;BME280;50547;49.498;0.092;2022-09-09T02:41:14;1002;;;17.56;87.11
64230;BME280;50547;49.498;0.092;2022-09-09T02:43:43;1002;;;17.54;86.94
64230;BME280;50547;49.498;0.092;2022-09-09T02:46:24;1001;;;17.50;87.22
64230;BME280;50547;49.498;0.092;2022-09-09T02:49:00;1002;;;17.45;86.82
64230;BME280;50547;49.498;0.092;2022-09-09T02:51:36;1002;;;17.52;86.81
64230;BME280;50547;49.498;0.092;2022-09-09T02:54:12;1002;;;17.45;86.67
64230;BME280;50547;49.498;0.092;2022-09-09T02:56:49;1002;;;17.46;87.43
64230;BME280;50547;49.498;0.092;2022-09-09T02:59:21;1002;;;17.40;87.98
64230;BME280;50547;49.498;0.092;2022-09-09T03:01:50;1002;;;17.42;87.65
64230;BME280;50547;49.498;0.092;2022-09-09T03:04:19;1002;;;17.55;87.44
64230;BME280;50547;49.498;0.092;2022-09-09T03:06:48;1002;;;17.47;87.51
64230;BME280;50547;49.498;0.092;2022-09-09T03:09:17;1002;;;17.56;87.56
64230;BME280;50547;49.498;0.092;2022-09-09T03:11:47;1002;;;17.61;87.58
64230;BME280;50547;49.498;0.092;2022-09-09T03:14:16;1002;;;17.44;88.03
64230;BME280;50547;49.498;0.092;2022-09-09T03:16:45;1002;;;17.54;87.84
64230;BME280;50547;49.498;0.092;2022-09-09T03:19:14;1002;;;17.45;88.40
64230;BME280;50547;49.498;0.092;2022-09-09T03:21:43;1002;;;17.58;88.24
64230;BME280;50547;49.498;0.092;2022-09-09T03:24:13;1002;;;17.63;87.98
64230;BME280;50547;49.498;0.092;2022-09-09T03:26:42;1002;;;17.49;88.20
64230;BME280;50547;49.498;0.092;2022-09-09T03:29:11;1002;;;17.49;87.72
64230;BME280;50547;49.498;0.092;2022-09-09T03:31:41;1002;;;17.51;87.96
64230;BME280;50547;49.498;0.092;2022-09-09T03:34:10;1002;;;17.62;87.69
64230;BME280;50547;49.498;0.092;2022-09-09T03:36:40;1002;;;17.62;87.78
64230;BME280;50547;49.498;0.092;2022-09-09T03:39:09;1002;;;17.58;87.83
64230;BME280;50547;49.498;0.092;2022-09-09T03:41:38;1002;;;17.64;87.82
64230;BME280;50547;49.498;0.092;2022-09-09T03:44:07;1002;;;17.64;87.50
64230;BME280;50547;49.498;0.092;2022-09-09T03:46:37;1002;;;17.66;87.79
64230;BME280;50547;49.498;0.092;2022-09-09T03:49:02;1002;;;17.77;87.31
64230;BME280;50547;49.498;0.092;2022-09-09T03:51:31;1002;;;17.75;87.85
64230;BME280;50547;49.498;0.092;2022-09-09T03:54:01;1002;;;17.62;88.26
64230;BME280;50547;49.498;0.092;2022-09-09T03:56:30;1002;;;17.81;87.95
64230;BME280;50547;49.498;0.092;2022-09-09T03:58:59;1002;;;17.60;88.24
64230;BME280;50547;49.498;0.092;2022-09-09T04:01:28;1002;;;17.61;88.43
64230;BME280;50547;49.498;0.092;2022-09-09T04:03:57;1002;;;17.68;88.20
64230;BME280;50547;49.498;0.092;2022-09-09T04:06:26;1002;;;17.68;88.16
64230;BME280;50547;49.498;0.092;2022-09-09T04:08:56;1002;;;17.82;88.14
64230;BME280;50547;49.498;0.092;2022-09-09T04:11:25;1002;;;17.72;88.52
64230;BME280;50547;49.498;0.092;2022-09-09T04:13:54;1002;;;17.78;88.01
64230;BME280;50547;49.498;0.092;2022-09-09T04:16:23;1002;;;17.68;88.84
64230;BME280;50547;49.498;0.092;2022-09-09T04:18:52;1002;;;17.60;89.03
64230;BME280;50547;49.498;0.092;2022-09-09T04:21:21;1002;;;17.63;88.66
64230;BME280;50547;49.498;0.092;2022-09-09T04:23:50;1002;;;17.69;88.59
64230;BME280;50547;49.498;0.092;2022-09-09T04:26:19;1002;;;17.68;88.70
64230;BME280;50547;49.498;0.092;2022-09-09T04:28:49;1002;;;17.82;88.58
64230;BME280;50547;49.498;0.092;2022-09-09T04:31:21;1002;;;17.60;88.95
64230;BME280;50547;49.498;0.092;2022-09-09T04:33:50;1002;;;17.58;88.68
64230;BME280;50547;49.498;0.092;2022-09-09T04:36:20;1002;;;17.58;88.66
64230;BME280;50547;49.498;0.092;2022-09-09T04:38:49;1002;;;17.41;88.85
64230;BME280;50547;49.498;0.092;2022-09-09T04:41:18;1002;;;17.62;87.76
64230;BME280;50547;49.498;0.092;2022-09-09T04:43:47;1002;;;17.62;87.78
64230;BME280;50547;49.498;0.092;2022-09-09T04:46:16;1002;;;17.59;88.00
64230;BME280;50547;49.498;0.092;2022-09-09T04:48:45;1002;;;17.64;87.94
64230;BME280;50547;49.498;0.092;2022-09-09T04:51:15;1002;;;17.64;88.46
64230;BME280;50547;49.498;0.092;2022-09-09T04:53:44;1002;;;17.70;88.10
64230;BME280;50547;49.498;0.092;2022-09-09T04:56:15;1002;;;17.74;87.67
64230;BME280;50547;49.498;0.092;2022-09-09T04:58:45;1002;;;17.83;87.44
64230;BME280;50547;49.498;0.092;2022-09-09T05:01:16;1002;;;17.83;86.53
64230;BME280;50547;49.498;0.092;2022-09-09T05:03:46;1002;;;18.04;85.81
64230;BME280;50547;49.498;0.092;2022-09-09T05:06:18;1002;;;18.15;85.91
64230;BME280;50547;49.498;0.092;2022-09-09T05:08:47;1002;;;18.00;86.63
64230;BME280;50547;49.498;0.092;2022-09-09T05:11:18;1002;;;18.07;87.18
64230;BME280;50547;49.498;0.092;2022-09-09T05:13:48;1002;;;18.06;87.21
64230;BME280;50547;49.498;0.092;2022-09-09T05:16:17;1002;;;18.05;87.14
64230;BME280;50547;49.498;0.092;2022-09-09T05:18:47;1002;;;18.03;87.14
64230;BME280;50547;49.498;0.092;2022-09-09T05:21:17;1002;;;18.00;86.94
64230;BME280;50547;49.498;0.092;2022-09-09T05:23:47;1002;;;18.04;86.73
64230;BME280;50547;49.498;0.092;2022-09-09T05:26:18;1002;;;18.07;86.96
64230;BME280;50547;49.498;0.092;2022-09-09T05:28:47;1002;;;18.08;86.97
64230;BME280;50547;49.498;0.092;2022-09-09T05:31:18;1003;;;18.10;86.72
64230;BME280;50547;49.498;0.092;2022-09-09T05:33:48;1002;;;18.16;86.98
64230;BME280;50547;49.498;0.092;2022-09-09T05:36:19;1003;;;18.08;87.41
64230;BME280;50547;49.498;0.092;2022-09-09T05:38:49;1003;;;18.22;87.06
64230;BME280;50547;49.498;0.092;2022-09-09T05:41:19;1002;;;18.10;86.62
64230;BME280;50547;49.498;0.092;2022-09-09T05:43:49;1002;;;18.14;86.03
64230;BME280;50547;49.498;0.092;2022-09-09T05:46:19;1002;;;18.19;85.89
64230;BME280;50547;49.498;0.092;2022-09-09T05:48:50;1002;;;18.29;86.65
64230;BME280;50547;49.498;0.092;2022-09-09T05:51:21;1002;;;18.21;87.26
64230;BME280;50547;49.498;0.092;2022-09-09T05:53:51;1002;;;18.10;87.86
64230;BME280;50547;49.498;0.092;2022-09-09T05:56:21;1002;;;17.98;87.93
64230;BME280;50547;49.498;0.092;2022-09-09T05:58:52;1002;;;18.01;87.72
64230;BME280;50547;49.498;0.092;2022-09-09T06:01:24;1003;;;17.90;87.88
64230;BME280;50547;49.498;0.092;2022-09-09T06:03:54;1003;;;17.99;87.54
64230;BME280;50547;49.498;0.092;2022-09-09T06:06:25;1003;;;18.12;86.60
64230;BME280;50547;49.498;0.092;2022-09-09T06:08:56;1003;;;18.18;86.37
64230;BME280;50547;49.498;0.092;2022-09-09T06:11:27;1003;;;18.22;85.08
64230;BME280;50547;49.498;0.092;2022-09-09T06:13:57;1002;;;18.27;84.56
64230;BME280;50547;49.498;0.092;2022-09-09T06:16:27;1003;;;18.49;84.34
64230;BME280;50547;49.498;0.092;2022-09-09T06:18:57;1003;;;18.48;84.31
64230;BME280;50547;49.498;0.092;2022-09-09T06:21:28;1002;;;18.69;84.58
64230;BME280;50547;49.498;0.092;2022-09-09T06:23:58;1003;;;18.46;85.35
64230;BME280;50547;49.498;0.092;2022-09-09T06:26:30;1003;;;18.39;85.87
64230;BME280;50547;49.498;0.092;2022-09-09T06:29:01;1003;;;18.46;85.84
64230;BME280;50547;49.498;0.092;2022-09-09T06:31:33;1003;;;18.53;85.79
64230;BME280;50547;49.498;0.092;2022-09-09T06:34:05;1003;;;18.50;86.15
64230;BME280;50547;49.498;0.092;2022-09-09T06:36:37;1003;;;18.54;86.20
64230;BME280;50547;49.498;0.092;2022-09-09T06:39:07;1003;;;18.37;86.11
64230;BME280;50547;49.498;0.092;2022-09-09T06:41:36;1003;;;18.41;87.00
64230;BME280;50547;49.498;0.092;2022-09-09T06:44:06;1003;;;18.41;86.22
64230;BME280;50547;49.498;0.092;2022-09-09T06:46:35;1003;;;18.54;86.76
64230;BME280;50547;49.498;0.092;2022-09-09T06:49:04;1003;;;18.41;87.00
64230;BME280;50547;49.498;0.092;2022-09-09T06:51:35;1003;;;18.39;87.20
64230;BME280;50547;49.498;0.092;2022-09-09T06:54:04;1003;;;18.51;86.67
64230;BME280;50547;49.498;0.092;2022-09-09T06:56:35;1003;;;18.46;86.55
64230;BME280;50547;49.498;0.092;2022-09-09T06:59:05;1003;;;18.41;85.68
64230;BME280;50547;49.498;0.092;2022-09-09T07:01:36;1003;;;18.40;85.19
64230;BME280;50547;49.498;0.092;2022-09-09T07:04:06;1003;;;18.44;85.60
64230;BME280;50547;49.498;0.092;2022-09-09T07:06:37;1003;;;18.29;86.55
64230;BME280;50547;49.498;0.092;2022-09-09T07:09:08;1003;;;18.57;85.80
64230;BME280;50547;49.498;0.092;2022-09-09T07:11:40;1003;;;18.51;85.13
64230;BME280;50547;49.498;0.092;2022-09-09T07:14:10;1003;;;18.67;85.68
64230;BME280;50547;49.498;0.092;2022-09-09T07:16:40;1003;;;18.30;88.14
64230;BME280;50547;49.498;0.092;2022-09-09T07:19:10;1003;;;18.12;88.32
64230;BME280;50547;49.498;0.092;2022-09-09T07:21:40;1003;;;18.13;88.47
64230;BME280;50547;49.498;0.092;2022-09-09T07:24:09;1003;;;18.10;88.48
64230;BME280;50547;49.498;0.092;2022-09-09T07:26:40;1003;;;18.29;88.15
64230;BME280;50547;49.498;0.092;2022-09-09T07:29:09;1003;;;18.26;87.99
64230;BME280;50547;49.498;0.092;2022-09-09T07:31:39;1003;;;18.14;88.64
64230;BME280;50547;49.498;0.092;2022-09-09T07:34:08;1003;;;18.31;88.23
64230;BME280;50547;49.498;0.092;2022-09-09T07:36:39;1003;;;18.28;88.32
64230;BME280;50547;49.498;0.092;2022-09-09T07:39:11;1003;;;18.38;88.41
64230;BME280;50547;49.498;0.092;2022-09-09T07:41:42;1003;;;18.35;88.35
64230;BME280;50547;49.498;0.092;2022-09-09T07:44:13;1003;;;18.28;88.38
64230;BME280;50547;49.498;0.092;2022-09-09T07:46:44;1003;;;18.26;88.30
64230;BME280;50547;49.498;0.092;2022-09-09T07:49:14;1003;;;18.27;88.41
64230;BME280;50547;49.498;0.092;2022-09-09T07:51:50;1003;;;18.44;88.04
64230;BME280;50547;49.498;0.092;2022-09-09T07:54:20;1003;;;18.46;88.02
64230;BME280;50547;49.498;0.092;2022-09-09T07:56:50;1003;;;18.38;87.67
64230;BME280;50547;49.498;0.092;2022-09-09T07:59:19;1003;;;18.33;88.15
64230;BME280;50547;49.498;0.092;2022-09-09T08:01:50;1003;;;18.15;89.81
64230;BME280;50547;49.498;0.092;2022-09-09T08:04:21;1003;;;18.26;88.66
64230;BME280;50547;49.498;0.092;2022-09-09T08:06:53;1003;;;18.22;89.06
64230;BME280;50547;49.498;0.092;2022-09-09T08:09:22;1003;;;18.33;89.19
64230;BME280;50547;49.498;0.092;2022-09-09T08:11:50;1003;;;18.19;90.26
64230;BME280;50547;49.498;0.092;2022-09-09T08:14:19;1004;;;18.00;90.91
64230;BME280;50547;49.498;0.092;2022-09-09T08:16:47;1004;;;17.87;91.96
64230;BME280;50547;49.498;0.092;2022-09-09T08:19:16;1004;;;17.51;93.17
64230;BME280;50547;49.498;0.092;2022-09-09T08:21:46;1004;;;16.14;94.49
64230;BME280;50547;49.498;0.092;2022-09-09T08:24:15;1004;;;16.59;93.42
64230;BME280;50547;49.498;0.092;2022-09-09T08:26:47;1004;;;16.51;92.96
64230;BME280;50547;49.498;0.092;2022-09-09T08:29:15;1004;;;16.04;94.33
64230;BME280;50547;49.498;0.092;2022-09-09T08:31:46;1004;;;16.53;91.38
64230;BME280;50547;49.498;0.092;2022-09-09T08:34:16;1004;;;16.83;90.45
64230;BME280;50547;49.498;0.092;2022-09-09T08:36:47;1004;;;17.49;89.59
64230;BME280;50547;49.498;0.092;2022-09-09T08:39:27;1004;;;17.49;90.59
64230;BME280;50547;49.498;0.092;2022-09-09T08:42:08;1004;;;17.36;90.60
64230;BME280;50547;49.498;0.092;2022-09-09T08:44:49;1004;;;17.40;90.50
64230;BME280;50547;49.498;0.092;2022-09-09T08:47:24;1004;;;17.53;90.18
64230;BME280;50547;49.498;0.092;2022-09-09T08:50:08;1004;;;17.59;89.85
64230;BME280;50547;49.498;0.092;2022-09-09T08:52:49;1004;;;17.64;90.13
64230;BME280;50547;49.498;0.092;2022-09-09T08:55:25;1004;;;17.68;90.26
64230;BME280;50547;49.498;0.092;2022-09-09T08:57:57;1004;;;17.70;89.79
64230;BME280;50547;49.498;0.092;2022-09-09T09:00:32;1004;;;17.79;89.76
64230;BME280;50547;49.498;0.092;2022-09-09T09:03:09;1004;;;17.99;89.67
64230;BME280;50547;49.498;0.092;2022-09-09T09:05:49;1004;;;17.96;89.86
64230;BME280;50547;49.498;0.092;2022-09-09T09:08:25;1004;;;18.03;89.09
64230;BME280;50547;49.498;0.092;2022-09-09T09:10:57;1004;;;18.05;88.08
64230;BME280;50547;49.498;0.092;2022-09-09T09:13:33;1004;;;17.84;86.74
64230;BME280;50547;49.498;0.092;2022-09-09T09:16:21;1005;;;18.45;85.52
64230;BME280;50547;49.498;0.092;2022-09-09T09:18:52;1005;;;18.34;86.46
64230;BME280;50547;49.498;0.092;2022-09-09T09:21:29;1005;;;17.94;87.09
64230;BME280;50547;49.498;0.092;2022-09-09T09:24:01;1005;;;18.10;85.89
64230;BME280;50547;49.498;0.092;2022-09-09T09:26:35;1005;;;18.24;84.84
64230;BME280;50547;49.498;0.092;2022-09-09T09:29:11;1005;;;18.21;83.34
64230;BME280;50547;49.498;0.092;2022-09-09T09:31:43;1005;;;18.46;81.27
64230;BME280;50547;49.498;0.092;2022-09-09T09:34:14;1005;;;18.70;80.66
64230;BME280;50547;49.498;0.092;2022-09-09T09:36:46;1005;;;18.57;79.92
64230;BME280;50547;49.498;0.092;2022-09-09T09:39:24;1005;;;18.59;79.00
64230;BME280;50547;49.498;0.092;2022-09-09T09:41:53;1005;;;18.72;78.84
64230;BME280;50547;49.498;0.092;2022-09-09T09:44:25;1005;;;18.65;76.83
64230;BME280;50547;49.498;0.092;2022-09-09T09:47:06;1005;;;19.06;77.00
64230;BME280;50547;49.498;0.092;2022-09-09T09:49:36;1005;;;19.08;79.38
64230;BME280;50547;49.498;0.092;2022-09-09T09:52:06;1005;;;18.96;80.49
64230;BME280;50547;49.498;0.092;2022-09-09T09:54:38;1005;;;18.90;78.79
64230;BME280;50547;49.498;0.092;2022-09-09T09:57:09;1005;;;19.33;77.01
64230;BME280;50547;49.498;0.092;2022-09-09T09:59:39;1005;;;19.01;78.17
64230;BME280;50547;49.498;0.092;2022-09-09T10:02:16;1005;;;19.15;76.03
64230;BME280;50547;49.498;0.092;2022-09-09T10:04:46;1005;;;19.41;75.23
64230;BME280;50547;49.498;0.092;2022-09-09T10:07:19;1005;;;19.56;74.71
64230;BME280;50547;49.498;0.092;2022-09-09T10:09:53;1005;;;19.56;76.40
64230;BME280;50547;49.498;0.092;2022-09-09T10:12:33;1006;;;19.65;75.51
64230;BME280;50547;49.498;0.092;2022-09-09T10:15:19;1006;;;19.99;74.68
64230;BME280;50547;49.498;0.092;2022-09-09T10:17:58;1006;;;19.83;77.26
64230;BME280;50547;49.498;0.092;2022-09-09T10:20:37;1006;;;19.80;76.97
64230;BME280;50547;49.498;0.092;2022-09-09T10:23:26;1006;;;19.83;76.85
64230;BME280;50547;49.498;0.092;2022-09-09T10:26:11;1006;;;19.52;76.31
64230;BME280;50547;49.498;0.092;2022-09-09T10:29:00;1006;;;19.60;76.91
64230;BME280;50547;49.498;0.092;2022-09-09T10:31:37;1006;;;19.48;75.60
64230;BME280;50547;49.498;0.092;2022-09-09T10:34:19;1006;;;19.26;76.64
64230;BME280;50547;49.498;0.092;2022-09-09T10:36:52;1006;;;19.62;76.35
64230;BME280;50547;49.498;0.092;2022-09-09T10:39:32;1006;;;19.59;75.90
64230;BME280;50547;49.498;0.092;2022-09-09T10:42:05;1006;;;19.72;74.09
64230;BME280;50547;49.498;0.092;2022-09-09T10:44:47;1006;;;19.84;72.66
64230;BME280;50547;49.498;0.092;2022-09-09T10:47:29;1006;;;20.12;74.14
64230;BME280;50547;49.498;0.092;2022-09-09T10:50:18;1006;;;20.44;72.73
64230;BME280;50547;49.498;0.092;2022-09-09T10:53:00;1006;;;20.30;72.56
64230;BME280;50547;49.498;0.092;2022-09-09T10:55:37;1006;;;20.15;73.79
64230;BME280;50547;49.498;0.092;2022-09-09T10:58:12;1006;;;20.19;73.76
64230;BME280;50547;49.498;0.092;2022-09-09T11:00:46;1006;;;20.43;72.41
64230;BME280;50547;49.498;0.092;2022-09-09T11:03:20;1006;;;20.37;73.49
64230;BME280;50547;49.498;0.092;2022-09-09T11:05:55;1006;;;20.43;72.63
64230;BME280;50547;49.498;0.092;2022-09-09T11:08:28;1006;;;20.82;72.69
64230;BME280;50547;49.498;0.092;2022-09-09T11:11:02;1006;;;20.65;71.76
64230;BME280;50547;49.498;0.092;2022-09-09T11:13:36;1006;;;20.77;71.49
64230;BME280;50547;49.498;0.092;2022-09-09T11:16:18;1006;;;21.11;72.02
64230;BME280;50547;49.498;0.092;2022-09-09T11:18:50;1006;;;21.39;70.32
64230;BME280;50547;49.498;0.092;2022-09-09T11:21:28;1006;;;21.60;69.79
64230;BME280;50547;49.498;0.092;2022-09-09T11:24:03;1006;;;21.69;68.96
64230;BME280;50547;49.498;0.092;2022-09-09T11:26:38;1006;;;21.15;70.42
64230;BME280;50547;49.498;0.092;2022-09-09T11:29:31;1006;;;20.91;72.33
64230;BME280;50547;49.498;0.092;2022-09-09T11:32:16;1006;;;20.87;72.23
64230;BME280;50547;49.498;0.092;2022-09-09T11:34:53;1006;;;20.93;70.82
64230;BME280;50547;49.498;0.092;2022-09-09T11:37:40;1006;;;20.88;71.43
64230;BME280;50547;49.498;0.092;2022-09-09T11:40:19;1006;;;20.86;71.23
64230;BME280;50547;49.498;0.092;2022-09-09T11:43:01;1006;;;21.15;69.63
64230;BME280;50547;49.498;0.092;2022-09-09T11:45:32;1006;;;20.65;71.56
64230;BME280;50547;49.498;0.092;2022-09-09T11:48:04;1006;;;20.79;72.05
64230;BME280;50547;49.498;0.092;2022-09-09T11:50:35;1006;;;20.56;72.73
64230;BME280;50547;49.498;0.092;2022-09-09T11:53:19;1006;;;20.68;69.66
64230;BME280;50547;49.498;0.092;2022-09-09T11:56:04;1006;;;21.12;69.64
64230;BME280;50547;49.498;0.092;2022-09-09T11:58:38;1006;;;20.86;69.82
64230;BME280;50547;49.498;0.092;2022-09-09T12:01:14;1006;;;20.67;70.52
64230;BME280;50547;49.498;0.092;2022-09-09T12:03:42;1006;;;20.55;69.39
64230;BME280;50547;49.498;0.092;2022-09-09T12:06:17;1006;;;20.66;70.64
64230;BME280;50547;49.498;0.092;2022-09-09T12:08:47;1006;;;20.61;70.99
64230;BME280;50547;49.498;0.092;2022-09-09T12:11:25;1006;;;20.52;71.18
64230;BME280;50547;49.498;0.092;2022-09-09T12:13:56;1006;;;20.55;70.65
64230;BME280;50547;49.498;0.092;2022-09-09T12:16:30;1006;;;20.92;69.25
64230;BME280;50547;49.498;0.092;2022-09-09T12:19:04;1006;;;21.41;68.21
64230;BME280;50547;49.498;0.092;2022-09-09T12:21:37;1006;;;21.46;69.60
64230;BME280;50547;49.498;0.092;2022-09-09T12:24:10;1006;;;21.22;69.23
64230;BME280;50547;49.498;0.092;2022-09-09T12:26:40;1006;;;21.17;70.29
64230;BME280;50547;49.498;0.092;2022-09-09T12:29:22;1006;;;20.83;71.38
64230;BME280;50547;49.498;0.092;2022-09-09T12:31:58;1006;;;20.80;71.91
64230;BME280;50547;49.498;0.092;2022-09-09T12:34:34;1006;;;20.85;71.79
64230;BME280;50547;49.498;0.092;2022-09-09T12:37:13;1006;;;20.64;71.09
64230;BME280;50547;49.498;0.092;2022-09-09T12:39:43;1006;;;20.48;71.15
64230;BME280;50547;49.498;0.092;2022-09-09T12:42:17;1006;;;20.67;70.97
64230;BME280;50547;49.498;0.092;2022-09-09T12:44:55;1006;;;20.76;71.64
64230;BME280;50547;49.498;0.092;2022-09-09T12:47:30;1006;;;20.80;70.54
64230;BME280;50547;49.498;0.092;2022-09-09T12:50:04;1006;;;20.88;70.17
64230;BME280;50547;49.498;0.092;2022-09-09T12:52:35;1006;;;21.00;70.49
64230;BME280;50547;49.498;0.092;2022-09-09T12:55:06;1006;;;20.90;70.57
64230;BME280;50547;49.498;0.092;2022-09-09T12:57:38;1006;;;20.93;70.00
64230;BME280;50547;49.498;0.092;2022-09-09T13:00:14;1006;;;20.92;69.47
64230;BME280;50547;49.498;0.092;2022-09-09T13:02:47;1006;;;20.55;71.19
64230;BME280;50547;49.498;0.092;2022-09-09T13:05:19;1006;;;20.70;71.67
64230;BME280;50547;49.498;0.092;2022-09-09T13:07:49;1006;;;20.71;69.72
64230;BME280;50547;49.498;0.092;2022-09-09T13:10:25;1006;;;20.65;69.20
64230;BME280;50547;49.498;0.092;2022-09-09T13:12:55;1006;;;20.92;70.20
64230;BME280;50547;49.498;0.092;2022-09-09T13:15:26;1006;;;20.95;70.68
64230;BME280;50547;49.498;0.092;2022-09-09T13:17:58;1006;;;21.17;69.95
64230;BME280;50547;49.498;0.092;2022-09-09T13:20:30;1006;;;21.07;70.11
64230;BME280;50547;49.498;0.092;2022-09-09T13:22:59;1006;;;21.09;70.24
64230;BME280;50547;49.498;0.092;2022-09-09T13:25:29;1006;;;20.88;70.49
64230;BME280;50547;49.498;0.092;2022-09-09T13:28:00;1006;;;21.14;68.75
64230;BME280;50547;49.498;0.092;2022-09-09T13:30:32;1006;;;21.16;69.60
64230;BME280;50547;49.498;0.092;2022-09-09T13:33:04;1006;;;21.22;68.73
64230;BME280;50547;49.498;0.092;2022-09-09T13:35:34;1006;;;21.12;69.92
64230;BME280;50547;49.498;0.092;2022-09-09T13:38:07;1006;;;21.13;70.41
64230;BME280;50547;49.498;0.092;2022-09-09T13:40:37;1006;;;20.99;69.56
64230;BME280;50547;49.498;0.092;2022-09-09T13:43:13;1006;;;21.28;68.35
64230;BME280;50547;49.498;0.092;2022-09-09T13:45:53;1006;;;21.78;67.95
64230;BME280;50547;49.498;0.092;2022-09-09T13:48:23;1006;;;21.73;67.64
64230;BME280;50547;49.498;0.092;2022-09-09T13:50:56;1006;;;21.15;69.55
64230;BME280;50547;49.498;0.092;2022-09-09T13:53:26;1006;;;21.21;69.28
64230;BME280;50547;49.498;0.092;2022-09-09T13:55:56;1006;;;21.32;68.90
64230;BME280;50547;49.498;0.092;2022-09-09T13:58:25;1006;;;21.37;68.51
64230;BME280;50547;49.498;0.092;2022-09-09T14:00:54;1006;;;21.77;68.25
64230;BME280;50547;49.498;0.092;2022-09-09T14:03:24;1006;;;21.99;67.74
64230;BME280;50547;49.498;0.092;2022-09-09T14:05:53;1006;;;21.73;67.91
64230;BME280;50547;49.498;0.092;2022-09-09T14:08:24;1006;;;21.48;70.56
64230;BME280;50547;49.498;0.092;2022-09-09T14:10:54;1006;;;21.07;72.05
64230;BME280;50547;49.498;0.092;2022-09-09T14:13:23;1006;;;21.10;72.20
64230;BME280;50547;49.498;0.092;2022-09-09T14:15:52;1006;;;21.11;70.30
64230;BME280;50547;49.498;0.092;2022-09-09T14:18:22;1006;;;21.55;68.95
64230;BME280;50547;49.498;0.092;2022-09-09T14:20:51;1006;;;21.54;69.25